createdAt,value
2018-09-05T11:09:47.213Z,10.33
2018-09-05T11:12:15.652Z,17.77
2018-09-05T11:14:44.113Z,13.00
2018-09-05T11:17:12.534Z,10.13
2018-09-05T11:19:40.987Z,10.03
2018-09-05T11:22:09.413Z,11.10
2018-09-05T11:24:37.936Z,13.33
2018-09-05T11:27:06.399Z,11.30
2018-09-05T11:29:34.866Z,11.30
2018-09-05T11:32:03.330Z,9.90
2018-09-05T11:34:31.787Z,9.67
2018-09-05T11:37:00.566Z,8.53
2018-09-05T11:39:29.005Z,7.90
2018-09-05T11:41:57.451Z,7.00
2018-09-05T11:44:25.922Z,7.50
2018-09-05T11:46:54.349Z,7.67
2018-09-05T11:49:22.849Z,17.33
2018-09-05T11:51:51.316Z,8.33
2018-09-05T11:54:19.782Z,7.90
2018-09-05T11:56:48.212Z,7.07
2018-09-05T11:59:16.717Z,6.40
2018-09-05T12:01:45.278Z,8.60
2018-09-05T12:04:13.757Z,7.23
2018-09-05T12:06:42.277Z,6.40
2018-09-05T12:09:11.909Z,9.50
2018-09-05T12:11:40.454Z,6.30
2018-09-05T12:14:09.585Z,6.73
2018-09-05T12:16:38.157Z,6.83
2018-09-05T12:19:07.505Z,6.17
2018-09-05T12:21:35.969Z,6.87
2018-09-05T12:24:04.749Z,7.00
2018-09-05T12:26:33.440Z,6.60
2018-09-05T12:29:03.441Z,6.50
2018-09-05T12:31:31.909Z,6.37
2018-09-05T12:34:00.338Z,7.77
2018-09-05T12:36:28.813Z,6.60
2018-09-05T12:38:57.325Z,8.37
2018-09-05T12:41:25.785Z,6.20
2018-09-05T12:43:54.273Z,7.53
2018-09-05T12:46:22.705Z,6.40
2018-09-05T12:48:51.165Z,5.87
2018-09-05T12:51:19.642Z,6.93
2018-09-05T12:53:48.090Z,7.10
2018-09-05T12:56:16.543Z,6.17
2018-09-05T12:58:45.002Z,6.77
2018-09-05T13:01:13.474Z,6.90
2018-09-05T13:03:42.374Z,6.03
2018-09-05T13:06:10.992Z,6.80
2018-09-05T13:08:39.642Z,6.73
2018-09-05T13:11:08.176Z,6.60
2018-09-05T13:13:36.676Z,6.37
2018-09-05T13:16:05.211Z,6.10
2018-09-05T13:18:33.683Z,5.90
2018-09-05T13:21:02.424Z,7.00
2018-09-05T13:23:31.004Z,6.43
2018-09-05T13:25:59.475Z,6.13
2018-09-05T13:28:28.237Z,6.00
2018-09-05T13:30:56.693Z,5.73
2018-09-05T13:33:25.165Z,7.47
2018-09-05T13:35:53.633Z,5.70
2018-09-05T13:38:22.222Z,6.27
2018-09-05T13:40:50.683Z,6.70
2018-09-05T13:43:19.273Z,8.53
2018-09-05T13:45:48.708Z,7.33
2018-09-05T13:48:17.281Z,7.10
2018-09-05T13:50:46.038Z,7.13
2018-09-05T13:53:14.572Z,6.67
2018-09-05T13:55:43.098Z,11.50
2018-09-05T13:58:11.631Z,6.13
2018-09-05T14:00:40.158Z,6.40
2018-09-05T14:03:08.598Z,6.70
2018-09-05T14:05:37.117Z,6.33
2018-09-05T14:08:05.932Z,6.87
2018-09-05T14:10:34.423Z,5.63
2018-09-05T14:13:02.914Z,6.50
2018-09-05T14:15:31.348Z,6.67
2018-09-05T14:17:59.857Z,9.20
2018-09-05T14:20:28.402Z,6.57
2018-09-05T14:22:56.822Z,6.77
2018-09-05T14:25:25.403Z,6.63
2018-09-05T14:27:53.988Z,6.70
2018-09-05T14:30:22.573Z,6.57
2018-09-05T14:32:51.048Z,6.60
2018-09-05T14:35:19.637Z,6.70
2018-09-05T14:37:48.157Z,6.37
2018-09-05T14:40:16.601Z,6.67
2018-09-05T14:42:45.066Z,7.13
2018-09-05T14:45:13.649Z,6.17
2018-09-05T14:47:42.097Z,6.73
2018-09-05T14:50:10.582Z,7.43
2018-09-05T14:52:39.125Z,8.07
2018-09-05T14:57:35.309Z,12.60
2018-09-05T15:00:04.108Z,12.87
2018-09-05T15:02:32.559Z,39.40
2018-09-05T15:05:01.070Z,14.57
2018-09-05T15:07:30.648Z,11.80
2018-09-05T15:09:59.145Z,8.07
2018-09-05T15:12:27.672Z,7.53
2018-09-05T15:14:56.225Z,7.50
2018-09-05T15:17:24.715Z,5.93
2018-09-05T15:19:54.251Z,5.87
2018-09-05T15:22:23.621Z,5.70
2018-09-05T15:24:52.158Z,5.75
2018-09-05T15:27:20.656Z,7.30
2018-09-05T15:49:32.989Z,7.00
2018-09-05T16:01:53.565Z,7.20
2018-09-05T16:04:23.105Z,8.67
2018-09-05T16:06:51.590Z,7.83
2018-09-05T16:09:20.182Z,7.90
2018-09-05T16:11:48.759Z,7.83
2018-09-05T17:20:47.193Z,10.40
2018-09-05T22:51:02.733Z,15.43
2018-09-05T22:55:51.315Z,15.00
2018-09-05T22:59:30.754Z,15.83
2018-09-05T23:02:10.525Z,14.93
2018-09-05T23:04:51.343Z,14.60
2018-09-05T23:08:04.451Z,14.53
2018-09-05T23:10:44.298Z,15.63
2018-09-05T23:14:26.201Z,15.13
2018-09-05T23:17:09.883Z,15.17
2018-09-05T23:19:54.914Z,16.40
2018-09-05T23:22:24.523Z,15.00
2018-09-05T23:24:53.052Z,16.37
2018-09-05T23:27:21.550Z,15.53
2018-09-05T23:29:50.055Z,15.03
2018-09-05T23:32:18.560Z,14.80
2018-09-05T23:34:47.086Z,16.50
2018-09-05T23:37:15.566Z,15.07
2018-09-05T23:39:44.101Z,16.03
2018-09-05T23:42:12.646Z,15.47
2018-09-05T23:44:41.111Z,23.33
2018-09-05T23:47:09.759Z,17.40
2018-09-05T23:49:38.355Z,16.20
2018-09-05T23:52:06.906Z,15.23
2018-09-05T23:54:35.492Z,17.10
2018-09-05T23:57:05.223Z,17.27
2018-09-05T23:59:33.783Z,17.33
